sensor_id;sensor_type;location;lat;lon;timestamp;temperature;humidity
53410;DHT22;66590;50.734;4.246;2023-07-29T00:01:35;19.20;99.90
53410;DHT22;66590;50.734;4.246;2023-07-29T00:04:02;19.10;99.90
53410;DHT22;66590;50.734;4.246;2023-07-29T00:06:29;19.10;99.90
53410;DHT22;66590;50.734;4.246;2023-07-29T00:08:56;19.00;99.90
53410;DHT22;66590;50.734;4.246;2023-07-29T00:11:23;18.90;99.90
53410;DHT22;66590;50.734;4.246;2023-07-29T00:13:50;18.90;99.90
53410;DHT22;66590;50.734;4.246;2023-07-29T00:16:19;18.90;99.90
53410;DHT22;66590;50.734;4.246;2023-07-29T00:18:46;18.80;99.90
53410;DHT22;66590;50.734;4.246;2023-07-29T00:21:13;18.80;99.90
53410;DHT22;66590;50.734;4.246;2023-07-29T00:23:40;18.70;99.90
53410;DHT22;66590;50.734;4.246;2023-07-29T00:26:07;18.60;99.90
53410;DHT22;66590;50.734;4.246;2023-07-29T00:28:34;18.60;99.90
53410;DHT22;66590;50.734;4.246;2023-07-29T00:31:01;18.50;99.90
53410;DHT22;66590;50.734;4.246;2023-07-29T00:33:30;18.50;99.90
53410;DHT22;66590;50.734;4.246;2023-07-29T00:35:57;18.50;99.90
53410;DHT22;66590;50.734;4.246;2023-07-29T00:38:24;18.50;99.90
53410;DHT22;66590;50.734;4.246;2023-07-29T00:40:51;18.50;99.90
53410;DHT22;66590;50.734;4.246;2023-07-29T00:43:18;18.50;99.90
53410;DHT22;66590;50.734;4.246;2023-07-29T00:45:45;18.50;99.90
53410;DHT22;66590;50.734;4.246;2023-07-29T00:48:12;18.50;99.90
53410;DHT22;66590;50.734;4.246;2023-07-29T00:50:41;18.40;99.90
53410;DHT22;66590;50.734;4.246;2023-07-29T00:53:08;18.40;99.90
53410;DHT22;66590;50.734;4.246;2023-07-29T00:55:35;18.40;99.90
53410;DHT22;66590;50.734;4.246;2023-07-29T00:58:03;18.40;99.90
53410;DHT22;66590;50.734;4.246;2023-07-29T01:00:30;18.30;99.90
53410;DHT22;66590;50.734;4.246;2023-07-29T01:02:57;18.40;99.90
53410;DHT22;66590;50.734;4.246;2023-07-29T01:05:26;18.40;99.90
53410;DHT22;66590;50.734;4.246;2023-07-29T01:08:01;18.40;99.90
53410;DHT22;66590;50.734;4.246;2023-07-29T01:10:49;18.50;99.90
53410;DHT22;66590;50.734;4.246;2023-07-29T01:13:25;18.50;99.90
53410;DHT22;66590;50.734;4.246;2023-07-29T01:15:55;18.50;99.90
53410;DHT22;66590;50.734;4.246;2023-07-29T01:18:24;18.60;99.90
53410;DHT22;66590;50.734;4.246;2023-07-29T01:20:54;18.60;99.90
53410;DHT22;66590;50.734;4.246;2023-07-29T01:23:25;18.80;99.90
53410;DHT22;66590;50.734;4.246;2023-07-29T01:25:52;18.60;99.90
53410;DHT22;66590;50.734;4.246;2023-07-29T01:28:19;18.60;99.90
53410;DHT22;66590;50.734;4.246;2023-07-29T01:30:49;18.70;99.90
53410;DHT22;66590;50.734;4.246;2023-07-29T01:33:20;18.60;99.90
53410;DHT22;66590;50.734;4.246;2023-07-29T01:35:54;18.50;99.90
53410;DHT22;66590;50.734;4.246;2023-07-29T01:38:29;18.30;99.90
53410;DHT22;66590;50.734;4.246;2023-07-29T01:40:57;18.30;99.90
53410;DHT22;66590;50.734;4.246;2023-07-29T01:43:24;18.20;99.90
53410;DHT22;66590;50.734;4.246;2023-07-29T01:45:52;18.10;99.90
53410;DHT22;66590;50.734;4.246;2023-07-29T01:48:19;18.20;99.90
53410;DHT22;66590;50.734;4.246;2023-07-29T01:50:46;18.30;99.90
53410;DHT22;66590;50.734;4.246;2023-07-29T01:53:12;18.30;99.90
53410;DHT22;66590;50.734;4.246;2023-07-29T01:55:41;18.20;99.90
53410;DHT22;66590;50.734;4.246;2023-07-29T01:58:09;18.30;99.90
53410;DHT22;66590;50.734;4.246;2023-07-29T02:00:36;18.20;99.90
53410;DHT22;66590;50.734;4.246;2023-07-29T02:03:03;18.30;99.90
53410;DHT22;66590;50.734;4.246;2023-07-29T02:05:30;18.40;99.90
53410;DHT22;66590;50.734;4.246;2023-07-29T02:07:57;18.50;99.90
53410;DHT22;66590;50.734;4.246;2023-07-29T02:10:24;18.40;99.90
53410;DHT22;66590;50.734;4.246;2023-07-29T02:12:52;18.40;99.90
53410;DHT22;66590;50.734;4.246;2023-07-29T02:15:19;18.30;99.90
53410;DHT22;66590;50.734;4.246;2023-07-29T02:17:46;18.40;99.90
53410;DHT22;66590;50.734;4.246;2023-07-29T02:20:13;18.30;99.90
53410;DHT22;66590;50.734;4.246;2023-07-29T02:22:40;18.10;99.90
53410;DHT22;66590;50.734;4.246;2023-07-29T02:25:08;18.10;99.90
53410;DHT22;66590;50.734;4.246;2023-07-29T02:27:35;18.10;99.90
53410;DHT22;66590;50.734;4.246;2023-07-29T02:30:04;18.10;99.90
53410;DHT22;66590;50.734;4.246;2023-07-29T02:32:31;18.10;99.90
53410;DHT22;66590;50.734;4.246;2023-07-29T02:34:58;18.00;99.90
53410;DHT22;66590;50.734;4.246;2023-07-29T02:37:25;18.00;99.90
53410;DHT22;66590;50.734;4.246;2023-07-29T02:39:52;17.90;99.90
53410;DHT22;66590;50.734;4.246;2023-07-29T02:42:19;17.90;99.90
53410;DHT22;66590;50.734;4.246;2023-07-29T02:44:46;18.00;99.90
53410;DHT22;66590;50.734;4.246;2023-07-29T02:47:15;17.90;99.90
53410;DHT22;66590;50.734;4.246;2023-07-29T02:49:42;17.80;99.90
53410;DHT22;66590;50.734;4.246;2023-07-29T02:52:09;17.90;99.90
53410;DHT22;66590;50.734;4.246;2023-07-29T02:54:35;17.80;99.90
53410;DHT22;66590;50.734;4.246;2023-07-29T02:57:03;17.90;99.90
53410;DHT22;66590;50.734;4.246;2023-07-29T02:59:30;17.90;99.90
53410;DHT22;66590;50.734;4.246;2023-07-29T03:01:57;17.90;99.90
53410;DHT22;66590;50.734;4.246;2023-07-29T03:04:25;17.90;99.90
53410;DHT22;66590;50.734;4.246;2023-07-29T03:06:52;17.80;99.90
53410;DHT22;66590;50.734;4.246;2023-07-29T03:09:19;17.90;99.90
53410;DHT22;66590;50.734;4.246;2023-07-29T03:11:46;17.90;99.90
53410;DHT22;66590;50.734;4.246;2023-07-29T03:14:14;18.00;99.90
53410;DHT22;66590;50.734;4.246;2023-07-29T03:16:41;18.00;99.90
53410;DHT22;66590;50.734;4.246;2023-07-29T03:19:08;17.90;99.90
53410;DHT22;66590;50.734;4.246;2023-07-29T03:21:36;18.00;99.90
53410;DHT22;66590;50.734;4.246;2023-07-29T03:24:03;17.90;99.90
53410;DHT22;66590;50.734;4.246;2023-07-29T03:26:30;17.70;99.90
53410;DHT22;66590;50.734;4.246;2023-07-29T03:28:57;17.70;99.90
53410;DHT22;66590;50.734;4.246;2023-07-29T03:31:24;17.80;99.90
53410;DHT22;66590;50.734;4.246;2023-07-29T03:33:51;17.80;99.90
53410;DHT22;66590;50.734;4.246;2023-07-29T03:36:18;17.80;99.90
53410;DHT22;66590;50.734;4.246;2023-07-29T03:38:46;17.80;99.90
53410;DHT22;66590;50.734;4.246;2023-07-29T03:41:13;17.90;99.90
53410;DHT22;66590;50.734;4.246;2023-07-29T03:43:40;17.90;99.90
53410;DHT22;66590;50.734;4.246;2023-07-29T03:46:07;17.70;99.90
53410;DHT22;66590;50.734;4.246;2023-07-29T03:48:38;17.70;99.90
53410;DHT22;66590;50.734;4.246;2023-07-29T03:51:05;17.70;99.90
53410;DHT22;66590;50.734;4.246;2023-07-29T03:53:32;17.60;99.90
53410;DHT22;66590;50.734;4.246;2023-07-29T03:56:00;17.50;99.90
53410;DHT22;66590;50.734;4.246;2023-07-29T03:58:27;17.70;99.90
53410;DHT22;66590;50.734;4.246;2023-07-29T04:00:54;17.90;99.90
53410;DHT22;66590;50.734;4.246;2023-07-29T04:03:21;17.90;99.90
53410;DHT22;66590;50.734;4.246;2023-07-29T04:05:48;18.00;99.90
53410;DHT22;66590;50.734;4.246;2023-07-29T04:08:15;17.90;99.90
53410;DHT22;66590;50.734;4.246;2023-07-29T04:10:42;17.90;99.90
53410;DHT22;66590;50.734;4.246;2023-07-29T04:13:10;17.90;99.90
53410;DHT22;66590;50.734;4.246;2023-07-29T04:15:37;17.80;99.90
53410;DHT22;66590;50.734;4.246;2023-07-29T04:18:04;17.90;99.90
53410;DHT22;66590;50.734;4.246;2023-07-29T04:20:32;18.00;99.90
53410;DHT22;66590;50.734;4.246;2023-07-29T04:22:59;18.00;99.90
53410;DHT22;66590;50.734;4.246;2023-07-29T04:25:26;17.90;99.90
53410;DHT22;66590;50.734;4.246;2023-07-29T04:27:53;17.90;99.90
53410;DHT22;66590;50.734;4.246;2023-07-29T04:30:21;17.90;99.90
53410;DHT22;66590;50.734;4.246;2023-07-29T04:32:48;17.90;99.90
53410;DHT22;66590;50.734;4.246;2023-07-29T04:35:15;17.80;99.90
53410;DHT22;66590;50.734;4.246;2023-07-29T04:37:42;17.80;99.90
53410;DHT22;66590;50.734;4.246;2023-07-29T04:40:09;17.70;99.90
53410;DHT22;66590;50.734;4.246;2023-07-29T04:42:37;17.80;99.90
53410;DHT22;66590;50.734;4.246;2023-07-29T04:45:05;17.80;99.90
53410;DHT22;66590;50.734;4.246;2023-07-29T04:47:33;17.80;99.90
53410;DHT22;66590;50.734;4.246;2023-07-29T04:50:00;17.80;99.90
53410;DHT22;66590;50.734;4.246;2023-07-29T04:52:27;17.80;99.90
53410;DHT22;66590;50.734;4.246;2023-07-29T04:54:54;17.80;99.90
53410;DHT22;66590;50.734;4.246;2023-07-29T04:57:21;17.90;99.90
53410;DHT22;66590;50.734;4.246;2023-07-29T04:59:48;17.90;99.90
53410;DHT22;66590;50.734;4.246;2023-07-29T05:02:15;18.00;99.90
53410;DHT22;66590;50.734;4.246;2023-07-29T05:04:43;18.00;99.90
53410;DHT22;66590;50.734;4.246;2023-07-29T05:07:10;18.00;99.90
53410;DHT22;66590;50.734;4.246;2023-07-29T05:09:37;18.00;99.90
53410;DHT22;66590;50.734;4.246;2023-07-29T05:12:05;18.00;99.90
53410;DHT22;66590;50.734;4.246;2023-07-29T05:14:32;18.00;99.90
53410;DHT22;66590;50.734;4.246;2023-07-29T05:16:59;18.10;99.90
53410;DHT22;66590;50.734;4.246;2023-07-29T05:19:26;18.10;99.90
53410;DHT22;66590;50.734;4.246;2023-07-29T05:21:55;18.10;99.90
53410;DHT22;66590;50.734;4.246;2023-07-29T05:24:22;18.10;99.90
53410;DHT22;66590;50.734;4.246;2023-07-29T05:26:49;18.10;99.90
53410;DHT22;66590;50.734;4.246;2023-07-29T05:29:16;18.10;99.90
53410;DHT22;66590;50.734;4.246;2023-07-29T05:31:43;18.20;99.90
53410;DHT22;66590;50.734;4.246;2023-07-29T05:34:10;18.20;99.90
53410;DHT22;66590;50.734;4.246;2023-07-29T05:36:37;18.40;99.90
53410;DHT22;66590;50.734;4.246;2023-07-29T05:39:06;18.40;99.90
53410;DHT22;66590;50.734;4.246;2023-07-29T05:41:33;18.50;99.90
53410;DHT22;66590;50.734;4.246;2023-07-29T05:44:00;18.70;99.90
53410;DHT22;66590;50.734;4.246;2023-07-29T05:46:26;18.70;99.90
53410;DHT22;66590;50.734;4.246;2023-07-29T05:48:54;18.60;99.90
53410;DHT22;66590;50.734;4.246;2023-07-29T05:51:20;18.70;99.90
53410;DHT22;66590;50.734;4.246;2023-07-29T05:53:47;18.80;99.90
53410;DHT22;66590;50.734;4.246;2023-07-29T05:56:16;18.90;99.90
53410;DHT22;66590;50.734;4.246;2023-07-29T05:58:43;18.90;99.90
53410;DHT22;66590;50.734;4.246;2023-07-29T06:01:10;19.00;99.90
53410;DHT22;66590;50.734;4.246;2023-07-29T06:03:37;19.10;99.90
53410;DHT22;66590;50.734;4.246;2023-07-29T06:06:04;19.00;99.90
53410;DHT22;66590;50.734;4.246;2023-07-29T06:08:31;19.00;99.90
53410;DHT22;66590;50.734;4.246;2023-07-29T06:10:58;18.90;99.90
53410;DHT22;66590;50.734;4.246;2023-07-29T06:13:26;18.90;99.90
53410;DHT22;66590;50.734;4.246;2023-07-29T06:15:53;18.90;99.90
53410;DHT22;66590;50.734;4.246;2023-07-29T06:18:20;19.10;99.90
53410;DHT22;66590;50.734;4.246;2023-07-29T06:20:47;19.10;99.90
53410;DHT22;66590;50.734;4.246;2023-07-29T06:23:15;19.40;99.90
53410;DHT22;66590;50.734;4.246;2023-07-29T06:25:42;19.40;99.90
53410;DHT22;66590;50.734;4.246;2023-07-29T06:28:09;19.40;99.90
53410;DHT22;66590;50.734;4.246;2023-07-29T06:30:37;19.70;99.90
53410;DHT22;66590;50.734;4.246;2023-07-29T06:33:04;19.60;99.90
53410;DHT22;66590;50.734;4.246;2023-07-29T06:35:31;19.30;99.90
53410;DHT22;66590;50.734;4.246;2023-07-29T06:37:58;19.50;99.90
53410;DHT22;66590;50.734;4.246;2023-07-29T06:40:25;19.70;99.90
53410;DHT22;66590;50.734;4.246;2023-07-29T06:42:52;19.70;99.90
53410;DHT22;66590;50.734;4.246;2023-07-29T06:45:19;19.50;99.90
53410;DHT22;66590;50.734;4.246;2023-07-29T06:47:48;19.30;99.90
53410;DHT22;66590;50.734;4.246;2023-07-29T06:50:15;19.30;99.90
53410;DHT22;66590;50.734;4.246;2023-07-29T06:52:42;19.40;99.90
53410;DHT22;66590;50.734;4.246;2023-07-29T06:55:08;19.50;99.90
53410;DHT22;66590;50.734;4.246;2023-07-29T06:57:35;19.50;99.90
53410;DHT22;66590;50.734;4.246;2023-07-29T07:00:09;19.50;99.90
53410;DHT22;66590;50.734;4.246;2023-07-29T07:02:43;19.70;99.90
53410;DHT22;66590;50.734;4.246;2023-07-29T07:05:18;19.80;99.90
53410;DHT22;66590;50.734;4.246;2023-07-29T07:07:52;19.80;99.90
53410;DHT22;66590;50.734;4.246;2023-07-29T07:10:25;20.00;99.90
53410;DHT22;66590;50.734;4.246;2023-07-29T07:12:59;19.80;99.90
53410;DHT22;66590;50.734;4.246;2023-07-29T07:15:33;19.80;99.90
53410;DHT22;66590;50.734;4.246;2023-07-29T07:18:00;19.90;99.90
53410;DHT22;66590;50.734;4.246;2023-07-29T07:20:29;19.90;99.90
53410;DHT22;66590;50.734;4.246;2023-07-29T07:23:01;19.80;99.90
53410;DHT22;66590;50.734;4.246;2023-07-29T07:25:28;19.70;99.90
53410;DHT22;66590;50.734;4.246;2023-07-29T07:27:55;19.70;99.90
53410;DHT22;66590;50.734;4.246;2023-07-29T07:30:29;19.70;99.90
53410;DHT22;66590;50.734;4.246;2023-07-29T07:33:03;19.80;99.90
53410;DHT22;66590;50.734;4.246;2023-07-29T07:35:38;19.90;99.90
53410;DHT22;66590;50.734;4.246;2023-07-29T07:38:11;20.00;99.90
53410;DHT22;66590;50.734;4.246;2023-07-29T07:40:52;20.00;99.90
53410;DHT22;66590;50.734;4.246;2023-07-29T07:43:26;20.30;99.90
53410;DHT22;66590;50.734;4.246;2023-07-29T07:46:01;20.70;99.90
53410;DHT22;66590;50.734;4.246;2023-07-29T07:48:28;20.90;99.90
53410;DHT22;66590;50.734;4.246;2023-07-29T07:50:56;20.80;99.90
53410;DHT22;66590;50.734;4.246;2023-07-29T07:53:23;20.90;99.90
53410;DHT22;66590;50.734;4.246;2023-07-29T07:55:51;21.50;99.90
53410;DHT22;66590;50.734;4.246;2023-07-29T07:58:18;21.30;99.90
53410;DHT22;66590;50.734;4.246;2023-07-29T08:00:46;21.70;99.90
53410;DHT22;66590;50.734;4.246;2023-07-29T08:03:13;21.70;99.90
53410;DHT22;66590;50.734;4.246;2023-07-29T08:05:40;21.70;99.90
53410;DHT22;66590;50.734;4.246;2023-07-29T08:08:08;22.00;99.90
53410;DHT22;66590;50.734;4.246;2023-07-29T08:10:35;22.30;99.90
53410;DHT22;66590;50.734;4.246;2023-07-29T08:13:02;22.20;99.90
53410;DHT22;66590;50.734;4.246;2023-07-29T08:15:29;21.90;99.90
53410;DHT22;66590;50.734;4.246;2023-07-29T08:17:56;21.60;99.90
53410;DHT22;66590;50.734;4.246;2023-07-29T08:20:23;21.60;99.90
53410;DHT22;66590;50.734;4.246;2023-07-29T08:22:50;21.80;99.90
53410;DHT22;66590;50.734;4.246;2023-07-29T08:25:19;22.10;99.90
53410;DHT22;66590;50.734;4.246;2023-07-29T08:27:46;22.50;99.90
53410;DHT22;66590;50.734;4.246;2023-07-29T08:30:13;22.50;99.90
53410;DHT22;66590;50.734;4.246;2023-07-29T08:32:40;22.50;99.90
53410;DHT22;66590;50.734;4.246;2023-07-29T08:35:07;23.00;99.90
53410;DHT22;66590;50.734;4.246;2023-07-29T08:37:34;23.40;99.90
53410;DHT22;66590;50.734;4.246;2023-07-29T08:40:01;23.80;99.90
53410;DHT22;66590;50.734;4.246;2023-07-29T08:42:32;23.50;99.90
53410;DHT22;66590;50.734;4.246;2023-07-29T08:45:05;23.60;99.90
53410;DHT22;66590;50.734;4.246;2023-07-29T08:47:33;23.30;99.90
53410;DHT22;66590;50.734;4.246;2023-07-29T08:50:01;23.30;99.90
53410;DHT22;66590;50.734;4.246;2023-07-29T08:52:29;23.30;99.90
53410;DHT22;66590;50.734;4.246;2023-07-29T08:54:56;23.50;99.90
53410;DHT22;66590;50.734;4.246;2023-07-29T08:57:23;23.50;99.90
53410;DHT22;66590;50.734;4.246;2023-07-29T08:59:52;23.70;99.90
53410;DHT22;66590;50.734;4.246;2023-07-29T09:02:19;24.20;99.90
53410;DHT22;66590;50.734;4.246;2023-07-29T09:04:46;24.40;99.90
53410;DHT22;66590;50.734;4.246;2023-07-29T09:07:13;24.10;99.90
53410;DHT22;66590;50.734;4.246;2023-07-29T09:09:40;24.50;99.90
53410;DHT22;66590;50.734;4.246;2023-07-29T09:12:08;24.60;99.90
53410;DHT22;66590;50.734;4.246;2023-07-29T09:14:35;24.60;99.90
53410;DHT22;66590;50.734;4.246;2023-07-29T09:17:07;24.90;99.90
53410;DHT22;66590;50.734;4.246;2023-07-29T09:19:34;24.60;99.90
53410;DHT22;66590;50.734;4.246;2023-07-29T09:22:01;25.10;99.90
53410;DHT22;66590;50.734;4.246;2023-07-29T09:24:28;24.80;99.90
53410;DHT22;66590;50.734;4.246;2023-07-29T09:26:55;24.40;99.90
53410;DHT22;66590;50.734;4.246;2023-07-29T09:29:23;24.20;99.90
53410;DHT22;66590;50.734;4.246;2023-07-29T09:31:50;23.80;99.90
53410;DHT22;66590;50.734;4.246;2023-07-29T09:34:18;23.80;99.90
53410;DHT22;66590;50.734;4.246;2023-07-29T09:36:45;23.30;99.90
53410;DHT22;66590;50.734;4.246;2023-07-29T09:39:13;23.20;99.90
53410;DHT22;66590;50.734;4.246;2023-07-29T09:41:40;23.00;99.90
53410;DHT22;66590;50.734;4.246;2023-07-29T09:44:07;23.20;99.90
53410;DHT22;66590;50.734;4.246;2023-07-29T09:46:35;23.60;99.90
53410;DHT22;66590;50.734;4.246;2023-07-29T09:49:05;23.80;99.90
53410;DHT22;66590;50.734;4.246;2023-07-29T09:51:37;23.60;99.90
53410;DHT22;66590;50.734;4.246;2023-07-29T09:54:04;23.70;99.90
53410;DHT22;66590;50.734;4.246;2023-07-29T09:56:32;23.70;99.90
53410;DHT22;66590;50.734;4.246;2023-07-29T09:58:58;23.50;99.90
53410;DHT22;66590;50.734;4.246;2023-07-29T10:01:27;23.00;99.90
53410;DHT22;66590;50.734;4.246;2023-07-29T10:03:56;22.70;99.90
53410;DHT22;66590;50.734;4.246;2023-07-29T10:06:23;22.70;99.90
53410;DHT22;66590;50.734;4.246;2023-07-29T10:08:52;22.80;99.90
53410;DHT22;66590;50.734;4.246;2023-07-29T10:11:21;22.80;99.90
53410;DHT22;66590;50.734;4.246;2023-07-29T10:13:48;22.70;99.90
53410;DHT22;66590;50.734;4.246;2023-07-29T10:16:32;22.10;99.90
53410;DHT22;66590;50.734;4.246;2023-07-29T10:19:01;21.70;99.90
53410;DHT22;66590;50.734;4.246;2023-07-29T10:21:29;21.60;99.90
53410;DHT22;66590;50.734;4.246;2023-07-29T10:24:01;21.70;99.90
53410;DHT22;66590;50.734;4.246;2023-07-29T10:26:31;21.90;99.90
53410;DHT22;66590;50.734;4.246;2023-07-29T10:29:04;22.40;99.90
53410;DHT22;66590;50.734;4.246;2023-07-29T10:31:34;21.90;99.90
53410;DHT22;66590;50.734;4.246;2023-07-29T10:34:02;21.50;99.90
53410;DHT22;66590;50.734;4.246;2023-07-29T10:36:30;21.30;99.90
53410;DHT22;66590;50.734;4.246;2023-07-29T10:38:58;21.40;99.90
53410;DHT22;66590;50.734;4.246;2023-07-29T10:41:57;21.20;99.90
53410;DHT22;66590;50.734;4.246;2023-07-29T10:44:47;21.00;99.90
53410;DHT22;66590;50.734;4.246;2023-07-29T10:47:14;20.70;99.90
53410;DHT22;66590;50.734;4.246;2023-07-29T10:49:42;20.50;99.90
53410;DHT22;66590;50.734;4.246;2023-07-29T10:52:13;20.60;99.90
53410;DHT22;66590;50.734;4.246;2023-07-29T10:54:44;20.60;99.90
53410;DHT22;66590;50.734;4.246;2023-07-29T10:57:31;20.40;99.90
53410;DHT22;66590;50.734;4.246;2023-07-29T10:59:58;20.50;99.90
53410;DHT22;66590;50.734;4.246;2023-07-29T11:02:29;20.30;99.90
53410;DHT22;66590;50.734;4.246;2023-07-29T11:04:56;20.10;99.90
53410;DHT22;66590;50.734;4.246;2023-07-29T11:07:24;20.00;99.90
53410;DHT22;66590;50.734;4.246;2023-07-29T11:09:54;19.90;99.90
53410;DHT22;66590;50.734;4.246;2023-07-29T11:12:51;19.90;99.90
53410;DHT22;66590;50.734;4.246;2023-07-29T11:15:21;19.80;99.90
53410;DHT22;66590;50.734;4.246;2023-07-29T11:17:50;19.70;99.90
53410;DHT22;66590;50.734;4.246;2023-07-29T11:20:18;19.80;99.90
53410;DHT22;66590;50.734;4.246;2023-07-29T11:22:45;19.90;99.90
53410;DHT22;66590;50.734;4.246;2023-07-29T11:25:13;20.00;99.90
53410;DHT22;66590;50.734;4.246;2023-07-29T11:27:41;20.00;99.90
53410;DHT22;66590;50.734;4.246;2023-07-29T11:30:11;20.00;99.90
53410;DHT22;66590;50.734;4.246;2023-07-29T11:32:40;20.10;99.90
53410;DHT22;66590;50.734;4.246;2023-07-29T11:35:09;20.20;99.90
53410;DHT22;66590;50.734;4.246;2023-07-29T11:37:37;20.40;99.90
53410;DHT22;66590;50.734;4.246;2023-07-29T11:40:05;20.80;99.90
53410;DHT22;66590;50.734;4.246;2023-07-29T11:42:33;21.30;99.90
53410;DHT22;66590;50.734;4.246;2023-07-29T11:45:00;21.80;99.90
53410;DHT22;66590;50.734;4.246;2023-07-29T11:47:29;22.10;99.90
53410;DHT22;66590;50.734;4.246;2023-07-29T11:49:58;22.60;99.90
53410;DHT22;66590;50.734;4.246;2023-07-29T11:52:27;22.60;99.90
53410;DHT22;66590;50.734;4.246;2023-07-29T11:54:54;22.40;99.90
53410;DHT22;66590;50.734;4.246;2023-07-29T11:57:21;22.30;99.90
53410;DHT22;66590;50.734;4.246;2023-07-29T11:59:50;22.80;99.90
53410;DHT22;66590;50.734;4.246;2023-07-29T12:02:17;23.00;99.90
53410;DHT22;66590;50.734;4.246;2023-07-29T12:04:48;22.70;99.90
53410;DHT22;66590;50.734;4.246;2023-07-29T12:07:17;22.50;99.90
53410;DHT22;66590;50.734;4.246;2023-07-29T12:09:46;22.20;99.90
53410;DHT22;66590;50.734;4.246;2023-07-29T12:12:13;22.10;99.90
53410;DHT22;66590;50.734;4.246;2023-07-29T12:14:44;21.80;99.90
53410;DHT22;66590;50.734;4.246;2023-07-29T12:17:11;21.40;99.90
53410;DHT22;66590;50.734;4.246;2023-07-29T12:19:39;20.60;99.90
53410;DHT22;66590;50.734;4.246;2023-07-29T12:22:09;19.70;99.90
53410;DHT22;66590;50.734;4.246;2023-07-29T12:24:37;19.20;99.90
53410;DHT22;66590;50.734;4.246;2023-07-29T12:27:05;19.10;99.90
53410;DHT22;66590;50.734;4.246;2023-07-29T12:29:32;19.20;99.90
53410;DHT22;66590;50.734;4.246;2023-07-29T12:32:06;19.50;99.90
53410;DHT22;66590;50.734;4.246;2023-07-29T12:34:33;19.90;99.90
53410;DHT22;66590;50.734;4.246;2023-07-29T12:37:03;20.20;99.90
53410;DHT22;66590;50.734;4.246;2023-07-29T12:39:33;20.30;99.90
53410;DHT22;66590;50.734;4.246;2023-07-29T12:42:01;20.60;99.90
53410;DHT22;66590;50.734;4.246;2023-07-29T12:44:31;20.90;99.90
53410;DHT22;66590;50.734;4.246;2023-07-29T12:46:59;21.30;99.90
53410;DHT22;66590;50.734;4.246;2023-07-29T12:49:26;22.00;99.90
53410;DHT22;66590;50.734;4.246;2023-07-29T12:51:53;22.10;99.90
53410;DHT22;66590;50.734;4.246;2023-07-29T12:54:20;22.30;99.90
53410;DHT22;66590;50.734;4.246;2023-07-29T12:56:48;22.70;99.90
53410;DHT22;66590;50.734;4.246;2023-07-29T12:59:15;22.70;99.90
53410;DHT22;66590;50.734;4.246;2023-07-29T13:01:42;22.50;99.90
53410;DHT22;66590;50.734;4.246;2023-07-29T13:04:09;22.50;99.90
53410;DHT22;66590;50.734;4.246;2023-07-29T13:06:37;23.10;99.90
53410;DHT22;66590;50.734;4.246;2023-07-29T13:09:04;23.70;99.90
53410;DHT22;66590;50.734;4.246;2023-07-29T13:11:31;23.70;99.90
53410;DHT22;66590;50.734;4.246;2023-07-29T13:14:00;23.50;99.90
53410;DHT22;66590;50.734;4.246;2023-07-29T13:16:27;23.10;99.90
53410;DHT22;66590;50.734;4.246;2023-07-29T13:18:54;22.80;99.90
53410;DHT22;66590;50.734;4.246;2023-07-29T13:21:21;23.00;99.90
53410;DHT22;66590;50.734;4.246;2023-07-29T13:23:48;22.70;99.90
53410;DHT22;66590;50.734;4.246;2023-07-29T13:26:15;22.60;99.90
53410;DHT22;66590;50.734;4.246;2023-07-29T13:28:42;22.60;99.90
53410;DHT22;66590;50.734;4.246;2023-07-29T13:31:11;22.50;99.90
53410;DHT22;66590;50.734;4.246;2023-07-29T13:33:38;22.80;99.90
53410;DHT22;66590;50.734;4.246;2023-07-29T13:36:05;23.20;99.90
53410;DHT22;66590;50.734;4.246;2023-07-29T13:38:32;23.60;99.90
53410;DHT22;66590;50.734;4.246;2023-07-29T13:40:59;23.20;99.90
53410;DHT22;66590;50.734;4.246;2023-07-29T13:43:26;23.10;99.90
53410;DHT22;66590;50.734;4.246;2023-07-29T13:45:53;22.90;99.90
53410;DHT22;66590;50.734;4.246;2023-07-29T13:48:22;22.90;99.90
53410;DHT22;66590;50.734;4.246;2023-07-29T13:50:49;22.80;99.90
53410;DHT22;66590;50.734;4.246;2023-07-29T13:53:15;22.70;99.90
53410;DHT22;66590;50.734;4.246;2023-07-29T13:55:42;22.90;99.90
53410;DHT22;66590;50.734;4.246;2023-07-29T13:58:10;23.40;99.90
53410;DHT22;66590;50.734;4.246;2023-07-29T14:00:37;23.90;99.90
53410;DHT22;66590;50.734;4.246;2023-07-29T14:03:04;24.40;99.90
53410;DHT22;66590;50.734;4.246;2023-07-29T14:05:32;24.80;99.90
53410;DHT22;66590;50.734;4.246;2023-07-29T14:07:59;24.80;99.90
53410;DHT22;66590;50.734;4.246;2023-07-29T14:10:26;24.30;99.90
53410;DHT22;66590;50.734;4.246;2023-07-29T14:12:53;23.80;99.90
53410;DHT22;66590;50.734;4.246;2023-07-29T14:15:21;23.70;99.90
53410;DHT22;66590;50.734;4.246;2023-07-29T14:17:48;23.70;99.90
53410;DHT22;66590;50.734;4.246;2023-07-29T14:20:15;23.50;99.90
53410;DHT22;66590;50.734;4.246;2023-07-29T14:22:43;23.30;99.90
53410;DHT22;66590;50.734;4.246;2023-07-29T14:25:11;23.40;99.90
53410;DHT22;66590;50.734;4.246;2023-07-29T14:27:38;23.10;99.90
53410;DHT22;66590;50.734;4.246;2023-07-29T14:30:06;23.10;99.90
53410;DHT22;66590;50.734;4.246;2023-07-29T14:32:33;23.60;99.90
53410;DHT22;66590;50.734;4.246;2023-07-29T14:35:00;23.50;99.90
53410;DHT22;66590;50.734;4.246;2023-07-29T14:37:27;23.20;99.90
53410;DHT22;66590;50.734;4.246;2023-07-29T14:39:55;23.20;99.90
53410;DHT22;66590;50.734;4.246;2023-07-29T14:42:22;23.30;99.90
53410;DHT22;66590;50.734;4.246;2023-07-29T14:44:49;23.60;99.90
53410;DHT22;66590;50.734;4.246;2023-07-29T14:47:16;23.70;99.90
53410;DHT22;66590;50.734;4.246;2023-07-29T14:49:44;23.70;99.90
53410;DHT22;66590;50.734;4.246;2023-07-29T14:52:11;23.30;99.90
53410;DHT22;66590;50.734;4.246;2023-07-29T14:54:38;23.40;99.90
53410;DHT22;66590;50.734;4.246;2023-07-29T14:57:07;23.60;99.90
53410;DHT22;66590;50.734;4.246;2023-07-29T14:59:34;23.70;99.90
53410;DHT22;66590;50.734;4.246;2023-07-29T15:02:01;23.70;99.90
53410;DHT22;66590;50.734;4.246;2023-07-29T15:04:28;24.00;99.90
53410;DHT22;66590;50.734;4.246;2023-07-29T15:06:55;23.60;99.90
53410;DHT22;66590;50.734;4.246;2023-07-29T15:09:22;23.40;99.90
53410;DHT22;66590;50.734;4.246;2023-07-29T15:11:49;23.20;99.90
53410;DHT22;66590;50.734;4.246;2023-07-29T15:14:17;23.20;99.90
53410;DHT22;66590;50.734;4.246;2023-07-29T15:16:44;23.00;99.90
53410;DHT22;66590;50.734;4.246;2023-07-29T15:19:11;22.90;99.90
53410;DHT22;66590;50.734;4.246;2023-07-29T15:21:40;22.90;99.90
53410;DHT22;66590;50.734;4.246;2023-07-29T15:24:07;22.80;99.90
53410;DHT22;66590;50.734;4.246;2023-07-29T15:26:35;22.80;99.90
53410;DHT22;66590;50.734;4.246;2023-07-29T15:29:02;23.10;99.90
53410;DHT22;66590;50.734;4.246;2023-07-29T15:31:31;23.20;99.90
53410;DHT22;66590;50.734;4.246;2023-07-29T15:33:58;23.00;99.90
53410;DHT22;66590;50.734;4.246;2023-07-29T15:36:25;22.90;99.90